createdAt,value
2019-05-06T00:02:10.702Z,3.27
2019-05-06T00:04:40.353Z,3.70
2019-05-06T00:07:10.184Z,3.57
2019-05-06T00:09:44.790Z,3.17
2019-05-06T00:12:18.019Z,3.00
2019-05-06T00:14:47.562Z,3.30
2019-05-06T00:17:16.977Z,3.47
2019-05-06T00:19:46.643Z,3.23
2019-05-06T00:22:16.284Z,3.83
2019-05-06T00:25:11.389Z,3.33
2019-05-06T00:27:58.669Z,3.53
2019-05-06T00:30:28.443Z,4.00
2019-05-06T00:32:58.085Z,3.50
2019-05-06T00:35:27.587Z,3.70
2019-05-06T00:37:57.217Z,3.23
2019-05-06T00:40:33.640Z,3.87
2019-05-06T00:43:05.537Z,3.50
2019-05-06T00:45:35.563Z,3.60
2019-05-06T00:48:05.088Z,3.80
2019-05-06T00:50:34.945Z,4.07
2019-05-06T00:53:06.350Z,3.57
2019-05-06T00:55:35.983Z,3.90
2019-05-06T00:58:05.316Z,4.07
2019-05-06T01:00:38.368Z,4.10
2019-05-06T01:03:08.542Z,4.23
2019-05-06T01:05:38.132Z,5.03
2019-05-06T01:08:07.704Z,3.67
2019-05-06T01:10:37.307Z,4.13
2019-05-06T01:13:16.827Z,4.03
2019-05-06T01:15:46.698Z,3.97
2019-05-06T01:18:16.033Z,4.87
2019-05-06T01:20:45.801Z,3.80
2019-05-06T01:23:15.544Z,5.03
2019-05-06T01:25:46.975Z,4.03
2019-05-06T01:28:48.424Z,4.37
2019-05-06T01:32:13.961Z,4.57
2019-05-06T01:35:24.528Z,5.10
2019-05-06T01:46:54.264Z,4.03
2019-05-06T01:57:33.778Z,4.83
2019-05-06T03:34:52.671Z,4.37
2019-05-06T03:37:07.868Z,4.03
2019-05-06T03:39:49.453Z,3.93
2019-05-06T03:42:47.355Z,4.37
2019-05-06T03:46:06.199Z,4.07
2019-05-06T03:48:40.154Z,4.03
2019-05-06T03:51:09.592Z,4.10
2019-05-06T03:53:43.416Z,4.10
2019-05-06T03:56:26.313Z,4.27
2019-05-06T03:59:23.667Z,4.43
2019-05-06T04:02:01.323Z,4.53
2019-05-06T04:04:33.207Z,4.10
2019-05-06T04:07:08.954Z,4.47
2019-05-06T04:09:58.993Z,4.07
2019-05-06T04:12:28.061Z,3.90
2019-05-06T04:14:58.357Z,4.33
2019-05-06T04:17:54.053Z,4.70
2019-05-06T04:20:34.430Z,4.73
2019-05-06T04:23:23.379Z,4.60
2019-05-06T04:25:58.980Z,4.43
2019-05-06T04:28:34.077Z,4.50
2019-05-06T04:31:03.712Z,5.23
2019-05-06T04:33:34.066Z,4.60
2019-05-06T04:36:06.287Z,4.50
2019-05-06T04:38:35.931Z,3.80
2019-05-06T04:41:05.522Z,4.33
2019-05-06T04:43:35.026Z,4.23
2019-05-06T04:46:04.766Z,4.43
2019-05-06T04:48:34.470Z,4.37
2019-05-06T04:51:06.960Z,4.13
2019-05-06T04:54:13.489Z,4.17
2019-05-06T04:56:43.771Z,4.00
2019-05-06T04:59:14.000Z,4.20
2019-05-06T05:01:45.543Z,4.67
2019-05-06T05:04:28.228Z,4.97
2019-05-06T05:06:47.424Z,4.50
2019-05-06T05:09:43.505Z,4.83
2019-05-06T05:12:22.694Z,5.07
2019-05-06T05:14:58.266Z,4.23
2019-05-06T05:17:42.055Z,4.90
2019-05-06T05:20:12.562Z,6.27
2019-05-06T05:22:44.571Z,4.63
2019-05-06T05:25:25.082Z,4.77
2019-05-06T05:27:46.767Z,4.60
2019-05-06T05:30:16.376Z,4.10
2019-05-06T05:33:00.068Z,4.43
2019-05-06T05:35:32.177Z,5.10
2019-05-06T05:38:03.044Z,5.00
2019-05-06T05:40:33.377Z,4.40
2019-05-06T05:43:22.812Z,4.30
2019-05-06T05:52:54.453Z,4.53
2019-05-06T06:05:59.054Z,4.57
2019-05-06T06:08:28.461Z,4.20
2019-05-06T06:11:06.289Z,4.20
2019-05-06T06:13:36.354Z,3.63
2019-05-06T06:16:42.284Z,3.87
2019-05-06T06:19:32.875Z,3.73
2019-05-06T06:22:05.382Z,4.20
2019-05-06T06:24:38.060Z,4.00
2019-05-06T06:27:07.776Z,3.83
2019-05-06T06:29:37.416Z,3.37
2019-05-06T06:32:14.393Z,3.77
2019-05-06T06:35:14.396Z,3.97
2019-05-06T06:38:06.607Z,4.00
2019-05-06T06:40:38.452Z,3.70
2019-05-06T06:43:16.206Z,3.90
2019-05-06T06:45:45.958Z,3.70
2019-05-06T06:48:15.209Z,4.10
2019-05-06T06:50:45.796Z,3.93
2019-05-06T06:53:14.986Z,4.30
2019-05-06T06:55:54.552Z,4.60
2019-05-06T06:58:33.710Z,3.80
2019-05-06T07:01:33.007Z,3.67
2019-05-06T07:04:14.031Z,4.07
2019-05-06T07:06:53.143Z,3.87
2019-05-06T07:09:29.698Z,3.90
2019-05-06T07:12:13.090Z,3.63
2019-05-06T07:18:02.741Z,3.00
2019-05-06T07:20:42.838Z,3.53
2019-05-06T07:23:25.453Z,2.60
2019-05-06T07:25:56.001Z,3.13
2019-05-06T07:28:26.046Z,3.40
2019-05-06T07:30:56.247Z,3.43
2019-05-06T07:33:26.160Z,3.37
2019-05-06T07:35:55.665Z,3.20
2019-05-06T07:38:25.178Z,2.80
2019-05-06T07:41:04.525Z,2.83
2019-05-06T07:43:42.086Z,2.90
2019-05-06T07:46:33.760Z,2.50
2019-05-06T07:49:03.459Z,2.97
2019-05-06T07:51:33.262Z,3.47
2019-05-06T07:54:02.902Z,2.63
2019-05-06T07:56:32.414Z,3.03
2019-05-06T07:59:12.556Z,3.53
2019-05-06T08:01:44.009Z,3.30
2019-05-06T08:04:13.475Z,2.97
2019-05-06T08:06:42.811Z,3.00
2019-05-06T08:09:12.927Z,3.47
2019-05-06T08:11:43.335Z,3.67
2019-05-06T08:14:13.211Z,3.60
2019-05-06T08:17:02.446Z,3.37
2019-05-06T08:19:33.588Z,3.30
2019-05-06T08:22:06.061Z,3.80
2019-05-06T08:24:35.650Z,3.53
2019-05-06T08:27:05.359Z,4.67
2019-05-06T08:29:34.507Z,4.60
2019-05-06T08:32:04.281Z,3.67
2019-05-06T08:34:34.174Z,3.90
2019-05-06T08:37:13.172Z,2.90
2019-05-06T08:39:45.939Z,2.90
2019-05-06T08:42:14.250Z,2.50
2019-05-06T08:44:43.298Z,2.33
2019-05-06T08:47:13.360Z,2.40
2019-05-06T08:50:07.190Z,2.50
2019-05-06T08:52:54.138Z,2.27
2019-05-06T08:55:32.669Z,2.30
2019-05-06T08:58:17.149Z,2.70
2019-05-06T09:01:12.416Z,2.40
2019-05-06T09:03:42.256Z,2.67
2019-05-06T09:06:24.511Z,2.37
2019-05-06T09:08:43.191Z,2.27
2019-05-06T09:11:12.597Z,2.40
2019-05-06T09:13:42.898Z,2.23
2019-05-06T09:16:13.079Z,2.40
2019-05-06T09:18:55.813Z,2.60
2019-05-06T09:22:13.961Z,2.80
2019-05-06T09:24:45.606Z,2.37
2019-05-06T09:27:42.196Z,2.30
2019-05-06T09:30:17.633Z,1.90
2019-05-06T09:32:53.595Z,1.83
2019-05-06T09:40:06.703Z,2.03
2019-05-06T09:43:43.390Z,1.90
2019-05-06T14:35:32.520Z,1.47
2019-05-06T14:38:03.413Z,2.00
2019-05-06T14:40:46.011Z,1.60
2019-05-06T14:43:16.601Z,1.63
2019-05-06T14:45:46.371Z,1.60
2019-05-06T14:48:36.152Z,2.10
2019-05-06T14:51:06.349Z,1.80
2019-05-06T14:53:44.485Z,1.40
2019-05-06T14:56:24.806Z,1.73
2019-05-06T14:59:12.529Z,1.80
2019-05-06T15:01:46.186Z,1.87
2019-05-06T15:04:43.347Z,2.10
2019-05-06T15:07:13.551Z,1.97
2019-05-06T15:09:55.741Z,1.73
2019-05-06T15:12:16.048Z,1.60
2019-05-06T15:14:45.739Z,1.93
2019-05-06T15:17:15.199Z,1.60
2019-05-06T15:19:45.233Z,1.43
2019-05-06T15:22:14.841Z,2.30
2019-05-06T15:24:44.545Z,1.70
2019-05-06T15:27:14.018Z,1.70
2019-05-06T15:29:49.007Z,1.80
2019-05-06T15:32:35.643Z,1.80
2019-05-06T15:35:44.159Z,1.60
2019-05-06T15:38:18.726Z,2.13
2019-05-06T15:40:48.627Z,1.77
2019-05-06T15:43:17.972Z,1.50
2019-05-06T15:45:47.602Z,1.60
2019-05-06T15:48:17.910Z,1.80
2019-05-06T15:50:47.785Z,1.70
2019-05-06T15:53:18.330Z,2.00
2019-05-06T15:55:53.482Z,1.93
2019-05-06T15:58:36.807Z,1.57
2019-05-06T16:01:06.619Z,1.57
2019-05-06T16:03:36.073Z,1.50
2019-05-06T16:06:06.990Z,1.50
2019-05-06T16:08:38.738Z,1.37
2019-05-06T16:11:12.582Z,1.40
2019-05-06T16:17:12.369Z,1.20
2019-05-06T16:19:54.789Z,1.00
2019-05-06T16:22:33.836Z,1.60
2019-05-06T16:25:17.484Z,2.07
2019-05-06T16:27:54.848Z,1.73
2019-05-06T16:35:45.372Z,1.43
2019-05-06T16:58:32.797Z,1.50
2019-05-06T17:19:29.096Z,1.50
2019-05-06T17:21:08.397Z,1.17
2019-05-06T17:23:47.679Z,2.17
2019-05-06T17:26:22.543Z,1.73
2019-05-06T17:29:10.756Z,2.73
2019-05-06T17:32:38.325Z,1.43
2019-05-06T17:35:13.454Z,1.43
2019-05-06T17:38:06.308Z,1.40
2019-05-06T17:40:36.710Z,1.50
2019-05-06T17:43:06.069Z,1.30
2019-05-06T17:45:59.371Z,1.80
2019-05-06T17:48:42.561Z,1.40
2019-05-06T17:51:14.125Z,1.33
2019-05-06T17:53:46.493Z,1.20
2019-05-06T17:56:16.880Z,1.80
2019-05-06T17:58:48.802Z,1.53
2019-05-06T18:01:23.235Z,1.00
2019-05-06T18:03:52.760Z,1.43
2019-05-06T18:06:25.049Z,1.10
2019-05-06T18:08:56.980Z,1.07
2019-05-06T18:11:27.655Z,1.10
2019-05-06T18:13:59.839Z,1.40
2019-05-06T18:16:30.296Z,1.10
2019-05-06T18:18:59.825Z,1.07
2019-05-06T18:21:29.434Z,1.30
2019-05-06T18:27:28.920Z,1.40
2019-05-06T18:30:11.380Z,1.27
2019-05-06T18:32:29.173Z,1.00
2019-05-06T18:34:58.389Z,0.97
2019-05-06T18:37:27.876Z,1.63
2019-05-06T18:39:57.332Z,1.30
2019-05-06T18:42:27.605Z,1.80
2019-05-06T18:44:59.060Z,1.40
2019-05-06T18:47:29.816Z,1.60
2019-05-06T18:50:02.156Z,1.10
2019-05-06T18:52:32.260Z,1.33
2019-05-06T18:55:05.060Z,1.40
2019-05-06T19:01:08.506Z,1.43
2019-05-06T19:03:48.058Z,1.40
2019-05-06T19:09:44.270Z,1.87
2019-05-06T19:12:29.045Z,2.77
2019-05-06T19:14:46.748Z,2.30
2019-05-06T19:17:17.197Z,1.80
2019-05-06T19:19:59.210Z,2.00
2019-05-06T19:22:28.807Z,2.17
2019-05-06T19:24:58.600Z,2.67
2019-05-06T19:27:27.769Z,1.70
2019-05-06T19:29:57.340Z,1.90
2019-05-06T19:32:26.851Z,1.60
2019-05-06T19:34:56.202Z,2.37
2019-05-06T19:37:25.915Z,1.67
2019-05-06T19:39:54.949Z,1.80
2019-05-06T19:42:24.507Z,2.20
2019-05-06T19:44:53.695Z,1.93
2019-05-06T19:47:23.036Z,1.60
2019-05-06T19:49:53.335Z,1.73
2019-05-06T19:52:25.137Z,1.67
2019-05-06T19:54:54.846Z,2.40
2019-05-06T19:57:26.424Z,2.97
2019-05-06T19:59:56.341Z,3.70
2019-05-06T20:02:26.404Z,2.53
2019-05-06T20:05:03.608Z,2.60
2019-05-06T20:07:46.422Z,3.27
2019-05-06T20:10:42.023Z,4.97
2019-05-06T20:13:13.928Z,3.17
2019-05-06T20:15:47.922Z,1.93
2019-05-06T20:18:22.139Z,2.93
2019-05-06T20:20:59.088Z,2.53
2019-05-06T20:27:13.307Z,1.50
2019-05-06T20:29:46.192Z,1.43
2019-05-06T20:32:22.657Z,1.57
2019-05-06T20:38:13.402Z,2.10
2019-05-06T20:40:43.650Z,1.67
2019-05-06T20:43:20.068Z,1.63
2019-05-06T20:45:47.484Z,1.43
2019-05-06T20:48:17.256Z,1.80
2019-05-06T20:50:46.590Z,1.70
2019-05-06T20:56:53.444Z,1.40
2019-05-06T21:03:04.196Z,1.70
2019-05-06T21:06:48.401Z,1.70
2019-05-06T21:16:38.145Z,1.50
2019-05-06T21:19:33.392Z,1.97
2019-05-06T21:22:24.748Z,1.20
2019-05-06T21:28:12.417Z,1.20
2019-05-06T21:34:26.655Z,1.33
2019-05-06T21:36:57.967Z,1.43
2019-05-06T21:39:27.992Z,1.60
2019-05-06T21:41:57.816Z,1.40
2019-05-06T21:48:09.618Z,1.47
2019-05-06T21:54:23.238Z,1.63
2019-05-06T21:56:53.536Z,1.40
2019-05-06T21:59:22.976Z,1.13
2019-05-06T22:01:52.555Z,1.70
2019-05-06T22:04:23.218Z,1.57
2019-05-06T22:06:52.635Z,1.73
2019-05-06T22:09:22.772Z,1.63
2019-05-06T22:11:57.185Z,1.50
2019-05-06T22:17:54.974Z,1.40
2019-05-06T22:23:56.385Z,1.53
2019-05-06T22:26:26.735Z,1.90
2019-05-06T22:28:56.438Z,1.60
2019-05-06T22:31:26.850Z,1.80
2019-05-06T22:34:00.053Z,1.70
2019-05-06T22:37:18.405Z,1.90
2019-05-06T22:43:16.206Z,1.90
2019-05-06T22:45:45.936Z,1.43
2019-05-06T22:48:15.768Z,1.37
2019-05-06T22:50:53.059Z,1.90
2019-05-06T22:56:54.551Z,1.80
2019-05-06T23:09:47.677Z,1.83
2019-05-06T23:12:17.395Z,1.53
2019-05-06T23:14:47.284Z,1.80
2019-05-06T23:19:57.309Z,1.60
2019-05-06T23:22:26.460Z,2.03
2019-05-06T23:25:01.941Z,1.70
2019-05-06T23:27:31.191Z,1.60
2019-05-06T23:30:03.038Z,1.77
2019-05-06T23:32:56.945Z,2.03
2019-05-06T23:39:59.689Z,1.50
2019-05-06T23:43:04.711Z,1.67
2019-05-06T23:46:12.149Z,2.30
2019-05-06T23:49:16.906Z,1.93
2019-05-06T23:52:22.732Z,2.07
2019-05-06T23:55:28.254Z,1.73
